sensor_id;sensor_type;location;lat;lon;timestamp;pressure;altitude;pressure_sealevel;temperature;humidity
70982;BME280;58640;51.320;9.456;2022-11-23T00:02:13;97833.97;;;6.58;90.67
70982;BME280;58640;51.320;9.456;2022-11-23T00:04:38;97836.72;;;6.65;90.01
70982;BME280;58640;51.320;9.456;2022-11-23T00:07:03;97841.59;;;6.61;89.84
70982;BME280;58640;51.320;9.456;2022-11-23T00:09:29;97830.84;;;6.55;90.79
70982;BME280;58640;51.320;9.456;2022-11-23T00:11:54;97836.69;;;6.44;91.03
70982;BME280;58640;51.320;9.456;2022-11-23T00:14:19;97833.09;;;6.37;91.60
70982;BME280;58640;51.320;9.456;2022-11-23T00:16:45;97828.47;;;6.45;90.89
70982;BME280;58640;51.320;9.456;2022-11-23T00:19:10;97839.22;;;6.52;90.60
70982;BME280;58640;51.320;9.456;2022-11-23T00:21:35;97836.44;;;6.60;89.97
70982;BME280;58640;51.320;9.456;2022-11-23T00:24:01;97832.81;;;6.67;89.32
70982;BME280;58640;51.320;9.456;2022-11-23T00:26:26;97839.94;;;6.60;89.91
70982;BME280;58640;51.320;9.456;2022-11-23T00:28:52;97838.09;;;6.61;89.65
70982;BME280;58640;51.320;9.456;2022-11-23T00:31:19;97847.81;;;6.47;90.33
70982;BME280;58640;51.320;9.456;2022-11-23T00:33:49;97840.69;;;6.54;89.85
70982;BME280;58640;51.320;9.456;2022-11-23T00:36:15;97836.03;;;6.42;90.71
70982;BME280;58640;51.320;9.456;2022-11-23T00:38:42;97826.47;;;6.33;91.27
70982;BME280;58640;51.320;9.456;2022-11-23T00:41:15;97834.56;;;6.39;90.98
70982;BME280;58640;51.320;9.456;2022-11-23T00:43:41;97836.72;;;6.29;92.00
70982;BME280;58640;51.320;9.456;2022-11-23T00:46:21;97835.41;;;6.40;91.25
70982;BME280;58640;51.320;9.456;2022-11-23T00:48:49;97834.22;;;6.28;91.85
70982;BME280;58640;51.320;9.456;2022-11-23T00:51:17;97837.34;;;6.31;91.70
70982;BME280;58640;51.320;9.456;2022-11-23T00:53:43;97838.53;;;6.29;92.02
70982;BME280;58640;51.320;9.456;2022-11-23T00:56:08;97843.53;;;6.32;91.70
70982;BME280;58640;51.320;9.456;2022-11-23T00:58:34;97839.00;;;6.32;91.73
70982;BME280;58640;51.320;9.456;2022-11-23T01:01:11;97833.66;;;6.32;91.68
70982;BME280;58640;51.320;9.456;2022-11-23T01:03:39;97840.22;;;6.30;92.10
70982;BME280;58640;51.320;9.456;2022-11-23T01:06:08;97843.66;;;6.24;92.38
70982;BME280;58640;51.320;9.456;2022-11-23T01:08:34;97838.13;;;6.25;92.52
70982;BME280;58640;51.320;9.456;2022-11-23T01:11:01;97845.47;;;6.23;92.75
70982;BME280;58640;51.320;9.456;2022-11-23T01:13:27;97841.16;;;6.22;92.99
70982;BME280;58640;51.320;9.456;2022-11-23T01:15:52;97846.63;;;6.35;92.13
70982;BME280;58640;51.320;9.456;2022-11-23T01:18:17;97842.22;;;6.42;91.25
70982;BME280;58640;51.320;9.456;2022-11-23T01:20:43;97857.69;;;6.32;92.10
70982;BME280;58640;51.320;9.456;2022-11-23T01:23:08;97852.44;;;6.39;91.86
70982;BME280;58640;51.320;9.456;2022-11-23T01:25:35;97847.78;;;6.26;92.63
70982;BME280;58640;51.320;9.456;2022-11-23T01:28:00;97850.06;;;6.29;92.79
70982;BME280;58640;51.320;9.456;2022-11-23T01:30:25;97860.34;;;6.32;92.32
70982;BME280;58640;51.320;9.456;2022-11-23T01:32:51;97858.22;;;6.42;91.53
70982;BME280;58640;51.320;9.456;2022-11-23T01:35:16;97865.38;;;6.56;90.28
70982;BME280;58640;51.320;9.456;2022-11-23T01:37:41;97862.91;;;6.40;91.50
70982;BME280;58640;51.320;9.456;2022-11-23T01:40:07;97869.22;;;6.33;92.51
70982;BME280;58640;51.320;9.456;2022-11-23T01:42:53;97871.03;;;6.32;92.13
70982;BME280;58640;51.320;9.456;2022-11-23T01:48:32;97869.59;;;6.30;92.37
70982;BME280;58640;51.320;9.456;2022-11-23T01:51:01;97870.16;;;6.25;93.12
70982;BME280;58640;51.320;9.456;2022-11-23T01:53:29;97877.03;;;6.34;92.39
70982;BME280;58640;51.320;9.456;2022-11-23T01:55:59;97874.53;;;6.47;91.32
70982;BME280;58640;51.320;9.456;2022-11-23T01:58:26;97874.25;;;6.42;91.36
70982;BME280;58640;51.320;9.456;2022-11-23T02:00:53;97867.00;;;6.36;92.37
70982;BME280;58640;51.320;9.456;2022-11-23T02:03:19;97874.44;;;6.41;92.17
70982;BME280;58640;51.320;9.456;2022-11-23T02:05:47;97873.22;;;6.43;91.46
70982;BME280;58640;51.320;9.456;2022-11-23T02:08:15;97869.78;;;6.28;92.80
70982;BME280;58640;51.320;9.456;2022-11-23T02:10:41;97873.53;;;6.34;92.24
70982;BME280;58640;51.320;9.456;2022-11-23T02:13:10;97873.72;;;6.18;92.90
70982;BME280;58640;51.320;9.456;2022-11-23T02:15:36;97868.94;;;6.13;93.46
70982;BME280;58640;51.320;9.456;2022-11-23T02:18:05;97867.78;;;6.16;92.96
70982;BME280;58640;51.320;9.456;2022-11-23T02:20:33;97869.41;;;6.17;93.52
70982;BME280;58640;51.320;9.456;2022-11-23T02:23:07;97867.13;;;6.14;93.26
70982;BME280;58640;51.320;9.456;2022-11-23T02:28:07;97861.03;;;6.20;93.03
70982;BME280;58640;51.320;9.456;2022-11-23T02:30:33;97861.88;;;6.20;92.90
70982;BME280;58640;51.320;9.456;2022-11-23T02:33:03;97863.31;;;6.23;92.32
70982;BME280;58640;51.320;9.456;2022-11-23T02:35:29;97872.53;;;6.20;92.53
70982;BME280;58640;51.320;9.456;2022-11-23T02:37:54;97873.81;;;6.24;92.78
70982;BME280;58640;51.320;9.456;2022-11-23T02:40:27;97869.31;;;6.25;92.36
70982;BME280;58640;51.320;9.456;2022-11-23T02:42:53;97871.72;;;6.20;92.88
70982;BME280;58640;51.320;9.456;2022-11-23T02:45:38;97871.59;;;6.28;92.28
70982;BME280;58640;51.320;9.456;2022-11-23T02:48:05;97862.94;;;6.26;91.96
70982;BME280;58640;51.320;9.456;2022-11-23T02:50:31;97868.09;;;6.27;92.25
70982;BME280;58640;51.320;9.456;2022-11-23T02:52:57;97861.69;;;6.22;92.32
70982;BME280;58640;51.320;9.456;2022-11-23T02:55:22;97865.53;;;6.19;92.59
70982;BME280;58640;51.320;9.456;2022-11-23T02:57:47;97860.56;;;6.16;92.83
70982;BME280;58640;51.320;9.456;2022-11-23T03:00:13;97869.78;;;6.28;91.89
70982;BME280;58640;51.320;9.456;2022-11-23T03:02:39;97866.53;;;6.33;91.32
70982;BME280;58640;51.320;9.456;2022-11-23T03:05:04;97874.94;;;6.30;91.61
70982;BME280;58640;51.320;9.456;2022-11-23T03:07:30;97867.28;;;6.27;91.95
70982;BME280;58640;51.320;9.456;2022-11-23T03:09:56;97866.25;;;6.28;91.90
70982;BME280;58640;51.320;9.456;2022-11-23T03:12:21;97865.09;;;6.30;91.48
70982;BME280;58640;51.320;9.456;2022-11-23T03:14:46;97856.53;;;6.20;91.77
70982;BME280;58640;51.320;9.456;2022-11-23T03:17:12;97871.44;;;6.15;92.29
70982;BME280;58640;51.320;9.456;2022-11-23T03:19:37;97869.88;;;6.20;91.63
70982;BME280;58640;51.320;9.456;2022-11-23T03:22:03;97874.94;;;6.15;92.15
70982;BME280;58640;51.320;9.456;2022-11-23T03:24:28;97869.03;;;6.20;91.87
70982;BME280;58640;51.320;9.456;2022-11-23T03:26:53;97866.19;;;6.21;91.58
70982;BME280;58640;51.320;9.456;2022-11-23T03:29:19;97872.53;;;6.20;91.61
70982;BME280;58640;51.320;9.456;2022-11-23T03:31:45;97865.97;;;6.37;91.10
70982;BME280;58640;51.320;9.456;2022-11-23T03:34:10;97868.75;;;6.29;91.14
70982;BME280;58640;51.320;9.456;2022-11-23T03:36:35;97876.22;;;6.19;91.89
70982;BME280;58640;51.320;9.456;2022-11-23T03:39:01;97862.41;;;6.30;90.77
70982;BME280;58640;51.320;9.456;2022-11-23T03:41:26;97865.00;;;6.24;91.09
70982;BME280;58640;51.320;9.456;2022-11-23T03:43:52;97876.28;;;6.26;90.78
70982;BME280;58640;51.320;9.456;2022-11-23T03:46:17;97870.31;;;6.38;90.08
70982;BME280;58640;51.320;9.456;2022-11-23T03:48:43;97872.63;;;6.41;89.92
70982;BME280;58640;51.320;9.456;2022-11-23T03:51:08;97875.28;;;6.41;89.73
70982;BME280;58640;51.320;9.456;2022-11-23T03:53:33;97879.22;;;6.45;89.41
70982;BME280;58640;51.320;9.456;2022-11-23T03:55:59;97880.84;;;6.46;89.39
70982;BME280;58640;51.320;9.456;2022-11-23T03:58:24;97870.44;;;6.51;89.06
70982;BME280;58640;51.320;9.456;2022-11-23T04:00:49;97872.31;;;6.51;89.17
70982;BME280;58640;51.320;9.456;2022-11-23T04:03:15;97869.25;;;6.54;88.79
70982;BME280;58640;51.320;9.456;2022-11-23T04:05:41;97876.94;;;6.42;89.70
70982;BME280;58640;51.320;9.456;2022-11-23T04:08:06;97877.75;;;6.43;89.62
70982;BME280;58640;51.320;9.456;2022-11-23T04:10:31;97883.03;;;6.36;90.29
70982;BME280;58640;51.320;9.456;2022-11-23T04:12:57;97884.81;;;6.50;89.65
70982;BME280;58640;51.320;9.456;2022-11-23T04:15:22;97888.16;;;6.52;89.03
70982;BME280;58640;51.320;9.456;2022-11-23T04:17:47;97877.19;;;6.47;89.57
70982;BME280;58640;51.320;9.456;2022-11-23T04:20:13;97881.31;;;6.50;89.29
70982;BME280;58640;51.320;9.456;2022-11-23T04:22:38;97894.47;;;6.51;89.57
70982;BME280;58640;51.320;9.456;2022-11-23T04:25:04;97885.97;;;6.62;88.53
70982;BME280;58640;51.320;9.456;2022-11-23T04:27:29;97886.84;;;6.48;89.43
70982;BME280;58640;51.320;9.456;2022-11-23T04:29:54;97882.34;;;6.49;89.54
70982;BME280;58640;51.320;9.456;2022-11-23T04:32:20;97883.53;;;6.46;89.88
70982;BME280;58640;51.320;9.456;2022-11-23T04:34:45;97884.63;;;6.52;89.69
70982;BME280;58640;51.320;9.456;2022-11-23T04:37:11;97887.72;;;6.70;88.45
70982;BME280;58640;51.320;9.456;2022-11-23T04:39:36;97883.75;;;6.66;88.64
70982;BME280;58640;51.320;9.456;2022-11-23T04:42:01;97888.19;;;6.73;88.17
70982;BME280;58640;51.320;9.456;2022-11-23T04:44:27;97881.94;;;6.66;88.85
70982;BME280;58640;51.320;9.456;2022-11-23T04:46:52;97893.38;;;6.60;88.98
70982;BME280;58640;51.320;9.456;2022-11-23T04:49:18;97891.41;;;6.69;88.93
70982;BME280;58640;51.320;9.456;2022-11-23T04:51:43;97885.44;;;6.67;88.91
70982;BME280;58640;51.320;9.456;2022-11-23T04:54:09;97886.47;;;6.51;89.94
70982;BME280;58640;51.320;9.456;2022-11-23T04:56:34;97897.34;;;6.50;90.48
70982;BME280;58640;51.320;9.456;2022-11-23T04:58:59;97893.94;;;6.56;89.53
70982;BME280;58640;51.320;9.456;2022-11-23T05:01:25;97892.09;;;6.56;89.50
70982;BME280;58640;51.320;9.456;2022-11-23T05:06:21;97891.91;;;6.43;90.90
70982;BME280;58640;51.320;9.456;2022-11-23T05:08:46;97894.19;;;6.61;89.86
70982;BME280;58640;51.320;9.456;2022-11-23T05:11:11;97895.97;;;6.54;90.16
70982;BME280;58640;51.320;9.456;2022-11-23T05:13:37;97896.84;;;6.61;90.32
70982;BME280;58640;51.320;9.456;2022-11-23T05:16:02;97895.59;;;6.57;90.57
70982;BME280;58640;51.320;9.456;2022-11-23T05:18:28;97903.59;;;6.57;90.56
70982;BME280;58640;51.320;9.456;2022-11-23T05:20:53;97897.41;;;6.56;90.22
70982;BME280;58640;51.320;9.456;2022-11-23T05:23:19;97901.69;;;6.51;90.65
70982;BME280;58640;51.320;9.456;2022-11-23T05:25:44;97895.97;;;6.54;90.64
70982;BME280;58640;51.320;9.456;2022-11-23T05:28:17;97901.22;;;6.47;91.22
70982;BME280;58640;51.320;9.456;2022-11-23T05:30:43;97904.09;;;6.46;91.51
70982;BME280;58640;51.320;9.456;2022-11-23T05:33:09;97901.78;;;6.57;91.04
70982;BME280;58640;51.320;9.456;2022-11-23T05:35:34;97899.09;;;6.57;90.85
70982;BME280;58640;51.320;9.456;2022-11-23T05:38:00;97898.63;;;6.54;91.23
70982;BME280;58640;51.320;9.456;2022-11-23T05:40:25;97898.06;;;6.58;90.74
70982;BME280;58640;51.320;9.456;2022-11-23T05:42:57;97903.50;;;6.65;90.39
70982;BME280;58640;51.320;9.456;2022-11-23T05:45:24;97907.84;;;6.51;91.30
70982;BME280;58640;51.320;9.456;2022-11-23T05:47:54;97907.94;;;6.43;91.78
70982;BME280;58640;51.320;9.456;2022-11-23T05:50:21;97906.88;;;6.38;92.95
70982;BME280;58640;51.320;9.456;2022-11-23T05:52:47;97910.69;;;6.50;92.08
70982;BME280;58640;51.320;9.456;2022-11-23T05:55:13;97913.09;;;6.45;91.97
70982;BME280;58640;51.320;9.456;2022-11-23T05:57:39;97914.28;;;6.57;91.30
70982;BME280;58640;51.320;9.456;2022-11-23T06:00:05;97917.03;;;6.63;90.88
70982;BME280;58640;51.320;9.456;2022-11-23T06:02:31;97914.47;;;6.55;91.47
70982;BME280;58640;51.320;9.456;2022-11-23T06:04:56;97916.66;;;6.66;90.70
70982;BME280;58640;51.320;9.456;2022-11-23T06:07:21;97921.66;;;6.55;91.78
70982;BME280;58640;51.320;9.456;2022-11-23T06:09:47;97916.78;;;6.58;91.15
70982;BME280;58640;51.320;9.456;2022-11-23T06:12:12;97911.06;;;6.61;91.64
70982;BME280;58640;51.320;9.456;2022-11-23T06:14:38;97919.75;;;6.49;91.77
70982;BME280;58640;51.320;9.456;2022-11-23T06:17:03;97908.75;;;6.58;91.50
70982;BME280;58640;51.320;9.456;2022-11-23T06:19:28;97904.47;;;6.43;92.04
70982;BME280;58640;51.320;9.456;2022-11-23T06:21:56;97911.19;;;6.39;92.30
70982;BME280;58640;51.320;9.456;2022-11-23T06:24:23;97905.03;;;6.38;91.92
70982;BME280;58640;51.320;9.456;2022-11-23T06:26:50;97918.63;;;6.43;92.05
70982;BME280;58640;51.320;9.456;2022-11-23T06:29:17;97913.28;;;6.43;91.83
70982;BME280;58640;51.320;9.456;2022-11-23T06:31:42;97919.75;;;6.49;91.65
70982;BME280;58640;51.320;9.456;2022-11-23T06:34:08;97928.69;;;6.41;92.31
70982;BME280;58640;51.320;9.456;2022-11-23T06:36:33;97927.56;;;6.36;92.59
70982;BME280;58640;51.320;9.456;2022-11-23T06:38:58;97930.59;;;6.47;92.38
70982;BME280;58640;51.320;9.456;2022-11-23T06:41:24;97929.84;;;6.53;92.25
70982;BME280;58640;51.320;9.456;2022-11-23T06:43:49;97931.25;;;6.49;92.55
70982;BME280;58640;51.320;9.456;2022-11-23T06:46:15;97935.38;;;6.52;92.16
70982;BME280;58640;51.320;9.456;2022-11-23T06:48:42;97937.13;;;6.45;92.87
70982;BME280;58640;51.320;9.456;2022-11-23T06:51:09;97934.16;;;6.54;91.77
70982;BME280;58640;51.320;9.456;2022-11-23T06:53:34;97933.81;;;6.57;91.91
70982;BME280;58640;51.320;9.456;2022-11-23T06:55:59;97937.00;;;6.67;90.63
70982;BME280;58640;51.320;9.456;2022-11-23T06:58:25;97944.56;;;6.64;90.87
70982;BME280;58640;51.320;9.456;2022-11-23T07:00:51;97951.41;;;6.66;90.93
70982;BME280;58640;51.320;9.456;2022-11-23T07:03:23;97952.22;;;6.67;90.94
70982;BME280;58640;51.320;9.456;2022-11-23T07:05:48;97950.09;;;6.62;91.28
70982;BME280;58640;51.320;9.456;2022-11-23T07:08:14;97952.75;;;6.62;91.34
70982;BME280;58640;51.320;9.456;2022-11-23T07:10:39;97948.00;;;6.58;91.53
70982;BME280;58640;51.320;9.456;2022-11-23T07:13:06;97953.22;;;6.66;91.21
70982;BME280;58640;51.320;9.456;2022-11-23T07:15:32;97953.03;;;6.67;91.20
70982;BME280;58640;51.320;9.456;2022-11-23T07:17:58;97962.63;;;6.76;90.57
70982;BME280;58640;51.320;9.456;2022-11-23T07:20:23;97960.19;;;6.81;89.75
70982;BME280;58640;51.320;9.456;2022-11-23T07:25:24;97954.44;;;6.63;91.27
70982;BME280;58640;51.320;9.456;2022-11-23T07:27:57;97957.31;;;6.62;91.17
70982;BME280;58640;51.320;9.456;2022-11-23T07:30:24;97957.69;;;6.59;91.46
70982;BME280;58640;51.320;9.456;2022-11-23T07:32:50;97959.59;;;6.65;91.27
70982;BME280;58640;51.320;9.456;2022-11-23T07:35:16;97960.31;;;6.73;90.47
70982;BME280;58640;51.320;9.456;2022-11-23T07:37:41;97963.72;;;6.67;91.30
70982;BME280;58640;51.320;9.456;2022-11-23T07:40:07;97964.84;;;6.58;91.73
70982;BME280;58640;51.320;9.456;2022-11-23T07:42:32;97967.34;;;6.60;92.08
70982;BME280;58640;51.320;9.456;2022-11-23T07:44:58;97971.44;;;6.77;90.69
70982;BME280;58640;51.320;9.456;2022-11-23T07:47:23;97970.75;;;6.68;91.14
70982;BME280;58640;51.320;9.456;2022-11-23T07:49:48;97963.34;;;6.70;91.39
70982;BME280;58640;51.320;9.456;2022-11-23T07:52:14;97962.25;;;6.65;91.35
70982;BME280;58640;51.320;9.456;2022-11-23T07:54:39;97966.94;;;6.77;90.68
70982;BME280;58640;51.320;9.456;2022-11-23T07:57:04;97960.88;;;6.69;90.71
70982;BME280;58640;51.320;9.456;2022-11-23T07:59:30;97960.13;;;6.75;90.22
70982;BME280;58640;51.320;9.456;2022-11-23T08:01:55;97958.66;;;6.72;90.63
70982;BME280;58640;51.320;9.456;2022-11-23T08:04:20;97963.81;;;6.74;90.25
70982;BME280;58640;51.320;9.456;2022-11-23T08:06:47;97964.53;;;6.82;90.13
70982;BME280;58640;51.320;9.456;2022-11-23T08:09:12;97966.09;;;6.77;90.32
70982;BME280;58640;51.320;9.456;2022-11-23T08:11:37;97961.97;;;7.10;88.61
70982;BME280;58640;51.320;9.456;2022-11-23T08:14:03;97961.72;;;7.05;89.03
70982;BME280;58640;51.320;9.456;2022-11-23T08:16:28;97970.47;;;6.99;89.20
70982;BME280;58640;51.320;9.456;2022-11-23T08:18:54;97960.88;;;7.04;89.38
70982;BME280;58640;51.320;9.456;2022-11-23T08:21:20;97966.94;;;7.13;88.54
70982;BME280;58640;51.320;9.456;2022-11-23T08:23:46;97966.28;;;7.11;88.88
70982;BME280;58640;51.320;9.456;2022-11-23T08:26:11;97964.81;;;7.08;88.59
70982;BME280;58640;51.320;9.456;2022-11-23T08:28:37;97973.59;;;7.02;88.93
70982;BME280;58640;51.320;9.456;2022-11-23T08:31:07;97972.91;;;6.94;89.73
70982;BME280;58640;51.320;9.456;2022-11-23T08:33:32;97975.75;;;6.92;89.82
70982;BME280;58640;51.320;9.456;2022-11-23T08:36:02;97981.88;;;7.07;88.33
70982;BME280;58640;51.320;9.456;2022-11-23T08:38:28;97970.22;;;7.15;88.01
70982;BME280;58640;51.320;9.456;2022-11-23T08:41:00;97971.66;;;7.32;87.04
70982;BME280;58640;51.320;9.456;2022-11-23T08:43:27;97984.97;;;7.25;87.42
70982;BME280;58640;51.320;9.456;2022-11-23T08:45:56;97984.06;;;7.39;86.85
70982;BME280;58640;51.320;9.456;2022-11-23T08:48:22;97985.50;;;7.35;86.39
70982;BME280;58640;51.320;9.456;2022-11-23T08:50:48;97978.06;;;7.37;86.94
70982;BME280;58640;51.320;9.456;2022-11-23T08:53:13;97982.03;;;7.41;86.50
70982;BME280;58640;51.320;9.456;2022-11-23T08:55:39;97982.03;;;7.41;86.69
70982;BME280;58640;51.320;9.456;2022-11-23T08:58:04;97985.59;;;7.48;86.36
70982;BME280;58640;51.320;9.456;2022-11-23T09:00:31;97985.72;;;7.62;85.28
70982;BME280;58640;51.320;9.456;2022-11-23T09:02:56;97991.84;;;7.56;85.21
70982;BME280;58640;51.320;9.456;2022-11-23T09:05:25;97988.97;;;7.57;86.13
70982;BME280;58640;51.320;9.456;2022-11-23T09:07:51;97986.34;;;7.64;85.60
70982;BME280;58640;51.320;9.456;2022-11-23T09:10:16;97982.47;;;7.66;84.92
70982;BME280;58640;51.320;9.456;2022-11-23T09:12:42;97996.81;;;7.59;85.84
70982;BME280;58640;51.320;9.456;2022-11-23T09:15:08;97996.75;;;7.73;85.39
70982;BME280;58640;51.320;9.456;2022-11-23T09:17:34;97996.47;;;7.89;84.93
70982;BME280;58640;51.320;9.456;2022-11-23T09:19:59;97993.19;;;7.94;84.60
70982;BME280;58640;51.320;9.456;2022-11-23T09:22:25;98001.22;;;7.94;84.97
70982;BME280;58640;51.320;9.456;2022-11-23T09:24:51;98008.53;;;8.06;84.78
70982;BME280;58640;51.320;9.456;2022-11-23T09:27:17;97999.16;;;8.17;83.77
70982;BME280;58640;51.320;9.456;2022-11-23T09:29:42;98012.50;;;8.10;83.29
70982;BME280;58640;51.320;9.456;2022-11-23T09:32:08;98005.44;;;8.30;82.61
70982;BME280;58640;51.320;9.456;2022-11-23T09:34:33;98011.19;;;8.27;82.35
70982;BME280;58640;51.320;9.456;2022-11-23T09:36:58;98004.31;;;8.18;82.92
70982;BME280;58640;51.320;9.456;2022-11-23T09:39:24;97997.66;;;8.35;83.12
70982;BME280;58640;51.320;9.456;2022-11-23T09:44:39;98014.66;;;8.55;81.49
70982;BME280;58640;51.320;9.456;2022-11-23T09:47:16;97999.22;;;8.57;80.79
70982;BME280;58640;51.320;9.456;2022-11-23T09:49:55;98004.47;;;8.72;80.17
70982;BME280;58640;51.320;9.456;2022-11-23T09:52:23;98005.69;;;8.69;79.38
70982;BME280;58640;51.320;9.456;2022-11-23T09:54:53;98006.22;;;8.58;79.82
70982;BME280;58640;51.320;9.456;2022-11-23T09:57:23;98004.53;;;8.51;80.01
70982;BME280;58640;51.320;9.456;2022-11-23T09:59:56;98004.06;;;8.41;81.06
70982;BME280;58640;51.320;9.456;2022-11-23T10:02:25;98004.94;;;8.48;80.52
70982;BME280;58640;51.320;9.456;2022-11-23T10:04:53;98006.63;;;8.55;79.08
70982;BME280;58640;51.320;9.456;2022-11-23T10:07:36;97997.91;;;8.40;80.66
70982;BME280;58640;51.320;9.456;2022-11-23T10:10:56;97999.13;;;8.44;80.32
70982;BME280;58640;51.320;9.456;2022-11-23T10:18:56;97994.94;;;8.63;79.38
70982;BME280;58640;51.320;9.456;2022-11-23T10:21:48;97993.34;;;8.75;78.52
70982;BME280;58640;51.320;9.456;2022-11-23T10:24:24;97992.97;;;8.44;79.87
70982;BME280;58640;51.320;9.456;2022-11-23T10:26:52;97995.94;;;8.62;79.32
70982;BME280;58640;51.320;9.456;2022-11-23T10:31:52;97988.31;;;8.59;78.98
70982;BME280;58640;51.320;9.456;2022-11-23T10:37:17;97989.63;;;8.76;78.56
70982;BME280;58640;51.320;9.456;2022-11-23T10:39:42;97986.56;;;8.85;78.34
70982;BME280;58640;51.320;9.456;2022-11-23T10:42:27;97983.50;;;8.88;77.62
70982;BME280;58640;51.320;9.456;2022-11-23T10:44:55;97988.84;;;8.82;78.64
70982;BME280;58640;51.320;9.456;2022-11-23T10:49:58;97982.22;;;8.78;78.03
70982;BME280;58640;51.320;9.456;2022-11-23T10:52:29;97987.53;;;8.71;78.23
70982;BME280;58640;51.320;9.456;2022-11-23T10:54:56;97990.31;;;8.91;77.49
70982;BME280;58640;51.320;9.456;2022-11-23T10:57:33;97984.69;;;8.79;77.62
70982;BME280;58640;51.320;9.456;2022-11-23T11:05:30;97975.09;;;8.57;78.66
70982;BME280;58640;51.320;9.456;2022-11-23T11:07:59;97979.22;;;8.53;78.94
70982;BME280;58640;51.320;9.456;2022-11-23T11:13:02;97984.13;;;8.50;78.90
70982;BME280;58640;51.320;9.456;2022-11-23T11:15:27;97972.94;;;8.40;79.24
70982;BME280;58640;51.320;9.456;2022-11-23T11:17:57;97976.69;;;8.45;79.19
70982;BME280;58640;51.320;9.456;2022-11-23T11:20:33;97971.13;;;8.47;79.77
70982;BME280;58640;51.320;9.456;2022-11-23T11:23:03;97973.25;;;8.58;79.12
70982;BME280;58640;51.320;9.456;2022-11-23T11:25:40;97966.88;;;8.59;78.29
70982;BME280;58640;51.320;9.456;2022-11-23T11:28:32;97963.59;;;8.63;78.61
70982;BME280;58640;51.320;9.456;2022-11-23T11:33:53;97968.69;;;8.52;78.00
70982;BME280;58640;51.320;9.456;2022-11-23T11:36:21;97964.38;;;8.57;78.45
70982;BME280;58640;51.320;9.456;2022-11-23T11:38:51;97954.94;;;8.61;78.28
70982;BME280;58640;51.320;9.456;2022-11-23T11:41:20;97963.44;;;8.78;77.85
70982;BME280;58640;51.320;9.456;2022-11-23T11:43:56;97960.22;;;8.96;76.52
70982;BME280;58640;51.320;9.456;2022-11-23T11:46:26;97953.59;;;8.92;76.53
70982;BME280;58640;51.320;9.456;2022-11-23T11:49:10;97944.25;;;8.74;76.94
70982;BME280;58640;51.320;9.456;2022-11-23T11:51:40;97941.38;;;8.69;77.60
70982;BME280;58640;51.320;9.456;2022-11-23T11:54:18;97947.09;;;8.60;76.77
70982;BME280;58640;51.320;9.456;2022-11-23T11:56:49;97941.53;;;8.61;77.13
70982;BME280;58640;51.320;9.456;2022-11-23T11:59:40;97941.72;;;8.60;77.13
70982;BME280;58640;51.320;9.456;2022-11-23T12:02:33;97943.72;;;8.45;75.70
70982;BME280;58640;51.320;9.456;2022-11-23T12:05:17;97941.25;;;8.50;76.19
70982;BME280;58640;51.320;9.456;2022-11-23T12:08:15;97947.06;;;8.53;74.96
70982;BME280;58640;51.320;9.456;2022-11-23T12:10:51;97940.50;;;8.62;75.19
70982;BME280;58640;51.320;9.456;2022-11-23T12:13:22;97940.25;;;8.57;75.47
70982;BME280;58640;51.320;9.456;2022-11-23T12:15:54;97940.44;;;8.49;75.58
70982;BME280;58640;51.320;9.456;2022-11-23T12:18:49;97936.75;;;8.50;75.44
70982;BME280;58640;51.320;9.456;2022-11-23T12:21:25;97947.34;;;8.31;75.44
70982;BME280;58640;51.320;9.456;2022-11-23T12:24:12;97946.75;;;8.35;75.80
70982;BME280;58640;51.320;9.456;2022-11-23T12:26:56;97944.19;;;8.55;74.53
70982;BME280;58640;51.320;9.456;2022-11-23T12:35:20;97942.78;;;8.31;75.93
70982;BME280;58640;51.320;9.456;2022-11-23T12:40:52;97934.59;;;8.33;76.10
70982;BME280;58640;51.320;9.456;2022-11-23T12:43:27;97929.00;;;8.28;76.62
70982;BME280;58640;51.320;9.456;2022-11-23T12:49:36;97927.66;;;8.17;77.28
70982;BME280;58640;51.320;9.456;2022-11-23T12:52:09;97927.81;;;8.09;77.82
70982;BME280;58640;51.320;9.456;2022-11-23T12:57:38;97928.88;;;8.15;77.48
70982;BME280;58640;51.320;9.456;2022-11-23T13:00:14;97924.16;;;8.17;76.92
70982;BME280;58640;51.320;9.456;2022-11-23T13:03:02;97910.13;;;8.15;76.94
70982;BME280;58640;51.320;9.456;2022-11-23T13:05:53;97904.81;;;8.21;76.32
70982;BME280;58640;51.320;9.456;2022-11-23T13:11:50;97897.94;;;8.12;76.18
70982;BME280;58640;51.320;9.456;2022-11-23T13:14:38;97893.28;;;8.21;75.52
70982;BME280;58640;51.320;9.456;2022-11-23T13:17:17;97890.59;;;8.21;74.36
70982;BME280;58640;51.320;9.456;2022-11-23T13:22:25;97888.31;;;8.18;73.92
70982;BME280;58640;51.320;9.456;2022-11-23T13:27:41;97883.78;;;8.18;73.98
70982;BME280;58640;51.320;9.456;2022-11-23T13:30:21;97883.41;;;8.21;73.83
70982;BME280;58640;51.320;9.456;2022-11-23T13:40:37;97881.34;;;8.23;72.25
70982;BME280;58640;51.320;9.456;2022-11-23T13:43:22;97881.72;;;8.20;72.83
70982;BME280;58640;51.320;9.456;2022-11-23T13:48:45;97878.81;;;8.09;73.76
70982;BME280;58640;51.320;9.456;2022-11-23T13:51:11;97878.72;;;7.96;74.78
70982;BME280;58640;51.320;9.456;2022-11-23T13:53:38;97867.06;;;8.10;74.13
70982;BME280;58640;51.320;9.456;2022-11-23T13:56:40;97863.94;;;8.06;74.07
70982;BME280;58640;51.320;9.456;2022-11-23T14:04:23;97868.81;;;7.96;74.21
70982;BME280;58640;51.320;9.456;2022-11-23T14:06:55;97858.09;;;7.96;74.48
70982;BME280;58640;51.320;9.456;2022-11-23T14:18:03;97842.22;;;7.88;74.40
70982;BME280;58640;51.320;9.456;2022-11-23T14:31:31;97860.69;;;7.77;75.09
70982;BME280;58640;51.320;9.456;2022-11-23T14:34:17;97853.00;;;7.67;75.27
70982;BME280;58640;51.320;9.456;2022-11-23T14:37:24;97855.19;;;7.57;76.08
70982;BME280;58640;51.320;9.456;2022-11-23T14:40:01;97859.31;;;7.53;76.01
70982;BME280;58640;51.320;9.456;2022-11-23T14:42:28;97858.41;;;7.46;76.48
70982;BME280;58640;51.320;9.456;2022-11-23T14:44:57;97857.31;;;7.40;76.77
70982;BME280;58640;51.320;9.456;2022-11-23T14:47:27;97859.00;;;7.41;76.86
70982;BME280;58640;51.320;9.456;2022-11-23T14:49:53;97854.09;;;7.45;76.61
70982;BME280;58640;51.320;9.456;2022-11-23T14:52:21;97855.81;;;7.31;77.46
70982;BME280;58640;51.320;9.456;2022-11-23T14:54:49;97853.28;;;7.23;77.67
70982;BME280;58640;51.320;9.456;2022-11-23T14:57:15;97854.94;;;7.24;77.87